sensor_id;sensor_type;location;lat;lon;timestamp;P1;durP1;ratioP1;P2;durP2;ratioP2
23712;SDS011;12035;49.978;8.298;2022-10-31T00:02:00;11.20;;;5.88;;
23712;SDS011;12035;49.978;8.298;2022-10-31T00:06:58;9.60;;;6.03;;
23712;SDS011;12035;49.978;8.298;2022-10-31T00:11:55;12.45;;;5.90;;
23712;SDS011;12035;49.978;8.298;2022-10-31T00:16:52;13.23;;;5.60;;
23712;SDS011;12035;49.978;8.298;2022-10-31T00:26:49;10.35;;;5.05;;
23712;SDS011;12035;49.978;8.298;2022-10-31T00:31:46;9.68;;;4.93;;
23712;SDS011;12035;49.978;8.298;2022-10-31T00:36:43;8.57;;;5.55;;
23712;SDS011;12035;49.978;8.298;2022-10-31T00:41:40;12.65;;;6.28;;
23712;SDS011;12035;49.978;8.298;2022-10-31T00:46:39;9.18;;;5.88;;
23712;SDS011;12035;49.978;8.298;2022-10-31T00:51:36;7.97;;;5.38;;
23712;SDS011;12035;49.978;8.298;2022-10-31T00:56:33;11.52;;;6.00;;
23712;SDS011;12035;49.978;8.298;2022-10-31T01:01:30;8.20;;;4.75;;
23712;SDS011;12035;49.978;8.298;2022-10-31T01:06:29;7.43;;;4.57;;
23712;SDS011;12035;49.978;8.298;2022-10-31T01:11:26;7.53;;;4.90;;
23712;SDS011;12035;49.978;8.298;2022-10-31T01:16:24;9.93;;;5.47;;
23712;SDS011;12035;49.978;8.298;2022-10-31T01:21:25;7.40;;;4.53;;
23712;SDS011;12035;49.978;8.298;2022-10-31T01:26:25;8.57;;;4.63;;
23712;SDS011;12035;49.978;8.298;2022-10-31T01:31:26;7.90;;;4.53;;
23712;SDS011;12035;49.978;8.298;2022-10-31T01:36:30;8.60;;;4.55;;
23712;SDS011;12035;49.978;8.298;2022-10-31T01:41:30;8.43;;;4.88;;
23712;SDS011;12035;49.978;8.298;2022-10-31T01:46:30;7.72;;;4.55;;
23712;SDS011;12035;49.978;8.298;2022-10-31T01:51:31;9.27;;;4.75;;
23712;SDS011;12035;49.978;8.298;2022-10-31T01:56:34;8.05;;;3.92;;
23712;SDS011;12035;49.978;8.298;2022-10-31T02:01:35;8.57;;;5.05;;
23712;SDS011;12035;49.978;8.298;2022-10-31T02:06:37;8.30;;;4.80;;
23712;SDS011;12035;49.978;8.298;2022-10-31T02:11:43;9.52;;;5.00;;
23712;SDS011;12035;49.978;8.298;2022-10-31T02:16:41;8.70;;;5.07;;
23712;SDS011;12035;49.978;8.298;2022-10-31T02:21:41;9.43;;;4.28;;
23712;SDS011;12035;49.978;8.298;2022-10-31T02:26:52;7.43;;;4.38;;
23712;SDS011;12035;49.978;8.298;2022-10-31T02:32:00;7.15;;;4.10;;
23712;SDS011;12035;49.978;8.298;2022-10-31T02:37:06;7.90;;;3.85;;
23712;SDS011;12035;49.978;8.298;2022-10-31T02:42:12;7.55;;;4.30;;
23712;SDS011;12035;49.978;8.298;2022-10-31T02:47:16;9.15;;;4.82;;
23712;SDS011;12035;49.978;8.298;2022-10-31T02:52:18;6.68;;;3.58;;
23712;SDS011;12035;49.978;8.298;2022-10-31T02:57:17;9.52;;;4.57;;
23712;SDS011;12035;49.978;8.298;2022-10-31T03:02:28;10.10;;;4.55;;
23712;SDS011;12035;49.978;8.298;2022-10-31T03:07:51;5.80;;;3.60;;
23712;SDS011;12035;49.978;8.298;2022-10-31T03:12:57;7.20;;;3.90;;
23712;SDS011;12035;49.978;8.298;2022-10-31T03:18:01;7.30;;;3.53;;
23712;SDS011;12035;49.978;8.298;2022-10-31T03:23:04;6.05;;;3.42;;
23712;SDS011;12035;49.978;8.298;2022-10-31T03:28:06;9.88;;;3.92;;
23712;SDS011;12035;49.978;8.298;2022-10-31T03:33:08;7.35;;;4.03;;
23712;SDS011;12035;49.978;8.298;2022-10-31T03:38:09;7.45;;;3.80;;
23712;SDS011;12035;49.978;8.298;2022-10-31T03:43:08;4.97;;;3.35;;
23712;SDS011;12035;49.978;8.298;2022-10-31T03:48:13;9.98;;;4.72;;
23712;SDS011;12035;49.978;8.298;2022-10-31T03:53:13;9.15;;;4.60;;
23712;SDS011;12035;49.978;8.298;2022-10-31T03:58:16;8.25;;;4.35;;
23712;SDS011;12035;49.978;8.298;2022-10-31T04:03:20;5.82;;;3.35;;
23712;SDS011;12035;49.978;8.298;2022-10-31T04:08:22;5.00;;;3.45;;
23712;SDS011;12035;49.978;8.298;2022-10-31T04:13:25;10.15;;;4.20;;
23712;SDS011;12035;49.978;8.298;2022-10-31T04:18:27;8.05;;;3.40;;
23712;SDS011;12035;49.978;8.298;2022-10-31T04:23:25;6.55;;;3.53;;
23712;SDS011;12035;49.978;8.298;2022-10-31T04:28:23;5.68;;;3.60;;
23712;SDS011;12035;49.978;8.298;2022-10-31T04:33:20;6.80;;;3.47;;
23712;SDS011;12035;49.978;8.298;2022-10-31T04:38:19;7.47;;;3.47;;
23712;SDS011;12035;49.978;8.298;2022-10-31T04:43:16;8.88;;;3.80;;
23712;SDS011;12035;49.978;8.298;2022-10-31T04:48:13;7.25;;;3.80;;
23712;SDS011;12035;49.978;8.298;2022-10-31T04:53:11;5.93;;;3.50;;
23712;SDS011;12035;49.978;8.298;2022-10-31T04:58:09;4.70;;;3.08;;
23712;SDS011;12035;49.978;8.298;2022-10-31T05:03:06;5.60;;;2.85;;
23712;SDS011;12035;49.978;8.298;2022-10-31T05:08:04;6.90;;;3.38;;
23712;SDS011;12035;49.978;8.298;2022-10-31T05:13:01;9.18;;;3.78;;
23712;SDS011;12035;49.978;8.298;2022-10-31T05:18:01;7.90;;;3.67;;
23712;SDS011;12035;49.978;8.298;2022-10-31T05:22:59;6.65;;;3.05;;
23712;SDS011;12035;49.978;8.298;2022-10-31T05:27:57;6.22;;;2.78;;
23712;SDS011;12035;49.978;8.298;2022-10-31T05:32:56;5.88;;;2.97;;
23712;SDS011;12035;49.978;8.298;2022-10-31T05:37:54;10.95;;;3.13;;
23712;SDS011;12035;49.978;8.298;2022-10-31T05:42:53;4.70;;;2.40;;
23712;SDS011;12035;49.978;8.298;2022-10-31T05:47:54;6.97;;;3.33;;
23712;SDS011;12035;49.978;8.298;2022-10-31T05:52:57;6.78;;;3.20;;
23712;SDS011;12035;49.978;8.298;2022-10-31T05:57:56;9.57;;;3.90;;
23712;SDS011;12035;49.978;8.298;2022-10-31T06:02:57;4.45;;;2.80;;
23712;SDS011;12035;49.978;8.298;2022-10-31T06:07:56;8.55;;;4.00;;
23712;SDS011;12035;49.978;8.298;2022-10-31T06:12:54;6.07;;;3.90;;
23712;SDS011;12035;49.978;8.298;2022-10-31T06:17:58;3.90;;;2.58;;
23712;SDS011;12035;49.978;8.298;2022-10-31T06:22:58;7.32;;;3.08;;
23712;SDS011;12035;49.978;8.298;2022-10-31T06:27:56;6.32;;;2.85;;
23712;SDS011;12035;49.978;8.298;2022-10-31T06:32:53;6.72;;;2.90;;
23712;SDS011;12035;49.978;8.298;2022-10-31T06:37:50;8.57;;;4.20;;
23712;SDS011;12035;49.978;8.298;2022-10-31T06:42:56;6.82;;;3.47;;
23712;SDS011;12035;49.978;8.298;2022-10-31T06:47:55;9.23;;;3.22;;
23712;SDS011;12035;49.978;8.298;2022-10-31T06:52:53;6.38;;;3.35;;
23712;SDS011;12035;49.978;8.298;2022-10-31T06:57:52;5.57;;;3.60;;
23712;SDS011;12035;49.978;8.298;2022-10-31T07:02:54;7.05;;;3.85;;
23712;SDS011;12035;49.978;8.298;2022-10-31T07:07:52;6.30;;;3.80;;
23712;SDS011;12035;49.978;8.298;2022-10-31T07:12:53;8.57;;;3.83;;
23712;SDS011;12035;49.978;8.298;2022-10-31T07:17:51;8.65;;;4.10;;
23712;SDS011;12035;49.978;8.298;2022-10-31T07:22:50;11.52;;;4.05;;
23712;SDS011;12035;49.978;8.298;2022-10-31T07:27:47;10.13;;;3.28;;
23712;SDS011;12035;49.978;8.298;2022-10-31T07:32:45;13.10;;;3.88;;
23712;SDS011;12035;49.978;8.298;2022-10-31T07:37:44;9.68;;;3.83;;
23712;SDS011;12035;49.978;8.298;2022-10-31T07:42:43;5.70;;;3.28;;
23712;SDS011;12035;49.978;8.298;2022-10-31T07:47:44;5.85;;;2.95;;
23712;SDS011;12035;49.978;8.298;2022-10-31T07:52:43;8.63;;;3.90;;
23712;SDS011;12035;49.978;8.298;2022-10-31T07:57:41;8.48;;;3.67;;
23712;SDS011;12035;49.978;8.298;2022-10-31T08:02:39;6.10;;;3.63;;
23712;SDS011;12035;49.978;8.298;2022-10-31T08:07:36;9.85;;;3.80;;
23712;SDS011;12035;49.978;8.298;2022-10-31T08:12:34;10.05;;;5.10;;
23712;SDS011;12035;49.978;8.298;2022-10-31T08:17:33;8.75;;;5.00;;
23712;SDS011;12035;49.978;8.298;2022-10-31T08:22:31;13.75;;;5.43;;
23712;SDS011;12035;49.978;8.298;2022-10-31T08:27:28;12.85;;;5.88;;
23712;SDS011;12035;49.978;8.298;2022-10-31T08:32:26;9.63;;;5.63;;
23712;SDS011;12035;49.978;8.298;2022-10-31T08:37:24;12.68;;;5.80;;
23712;SDS011;12035;49.978;8.298;2022-10-31T08:42:22;13.65;;;5.50;;
23712;SDS011;12035;49.978;8.298;2022-10-31T08:47:19;12.63;;;5.40;;
23712;SDS011;12035;49.978;8.298;2022-10-31T08:52:16;10.80;;;5.90;;
23712;SDS011;12035;49.978;8.298;2022-10-31T08:57:15;10.65;;;5.35;;
23712;SDS011;12035;49.978;8.298;2022-10-31T09:02:12;14.05;;;6.35;;
23712;SDS011;12035;49.978;8.298;2022-10-31T09:07:09;11.10;;;5.97;;
23712;SDS011;12035;49.978;8.298;2022-10-31T09:12:06;14.20;;;6.25;;
23712;SDS011;12035;49.978;8.298;2022-10-31T09:17:05;14.70;;;8.18;;
23712;SDS011;12035;49.978;8.298;2022-10-31T09:22:02;14.63;;;7.65;;
23712;SDS011;12035;49.978;8.298;2022-10-31T09:26:59;13.93;;;7.22;;
23712;SDS011;12035;49.978;8.298;2022-10-31T09:31:57;12.55;;;6.35;;
23712;SDS011;12035;49.978;8.298;2022-10-31T09:36:55;9.10;;;5.38;;
23712;SDS011;12035;49.978;8.298;2022-10-31T09:41:58;9.32;;;5.43;;
23712;SDS011;12035;49.978;8.298;2022-10-31T09:47:24;11.85;;;6.10;;
23712;SDS011;12035;49.978;8.298;2022-10-31T09:52:41;11.70;;;6.03;;
23712;SDS011;12035;49.978;8.298;2022-10-31T09:57:47;11.27;;;5.72;;
23712;SDS011;12035;49.978;8.298;2022-10-31T10:02:46;11.68;;;5.35;;
23712;SDS011;12035;49.978;8.298;2022-10-31T10:07:54;10.05;;;5.25;;
23712;SDS011;12035;49.978;8.298;2022-10-31T10:13:03;12.65;;;5.75;;
23712;SDS011;12035;49.978;8.298;2022-10-31T10:18:18;9.65;;;5.22;;
23712;SDS011;12035;49.978;8.298;2022-10-31T10:23:34;8.27;;;4.95;;
23712;SDS011;12035;49.978;8.298;2022-10-31T10:28:45;12.50;;;5.80;;
23712;SDS011;12035;49.978;8.298;2022-10-31T10:33:50;10.73;;;5.25;;
23712;SDS011;12035;49.978;8.298;2022-10-31T10:38:59;8.05;;;4.93;;
23712;SDS011;12035;49.978;8.298;2022-10-31T10:44:00;9.98;;;5.78;;
23712;SDS011;12035;49.978;8.298;2022-10-31T10:48:58;15.13;;;6.80;;
23712;SDS011;12035;49.978;8.298;2022-10-31T10:54:13;11.00;;;6.15;;
23712;SDS011;12035;49.978;8.298;2022-10-31T10:59:35;12.70;;;6.25;;
23712;SDS011;12035;49.978;8.298;2022-10-31T11:04:33;13.88;;;7.97;;
23712;SDS011;12035;49.978;8.298;2022-10-31T11:09:33;14.82;;;7.70;;
23712;SDS011;12035;49.978;8.298;2022-10-31T11:14:33;16.65;;;7.53;;
23712;SDS011;12035;49.978;8.298;2022-10-31T11:19:33;14.63;;;7.47;;
23712;SDS011;12035;49.978;8.298;2022-10-31T11:24:35;12.60;;;7.15;;
23712;SDS011;12035;49.978;8.298;2022-10-31T11:29:36;11.57;;;5.90;;
23712;SDS011;12035;49.978;8.298;2022-10-31T11:34:35;10.50;;;7.03;;
23712;SDS011;12035;49.978;8.298;2022-10-31T11:39:41;14.05;;;6.80;;
23712;SDS011;12035;49.978;8.298;2022-10-31T11:44:48;15.90;;;6.88;;
23712;SDS011;12035;49.978;8.298;2022-10-31T11:49:46;11.00;;;7.00;;
23712;SDS011;12035;49.978;8.298;2022-10-31T11:54:47;9.13;;;5.63;;
23712;SDS011;12035;49.978;8.298;2022-10-31T11:59:50;13.55;;;4.90;;
23712;SDS011;12035;49.978;8.298;2022-10-31T12:04:52;8.57;;;5.53;;
23712;SDS011;12035;49.978;8.298;2022-10-31T12:10:01;13.32;;;5.65;;
23712;SDS011;12035;49.978;8.298;2022-10-31T12:15:04;12.38;;;7.07;;
23712;SDS011;12035;49.978;8.298;2022-10-31T12:20:20;12.30;;;6.57;;
23712;SDS011;12035;49.978;8.298;2022-10-31T12:25:28;11.73;;;6.60;;
23712;SDS011;12035;49.978;8.298;2022-10-31T12:30:40;13.02;;;7.00;;
23712;SDS011;12035;49.978;8.298;2022-10-31T12:35:50;12.52;;;5.70;;
23712;SDS011;12035;49.978;8.298;2022-10-31T12:41:15;12.43;;;6.65;;
23712;SDS011;12035;49.978;8.298;2022-10-31T12:46:27;12.73;;;6.13;;
23712;SDS011;12035;49.978;8.298;2022-10-31T12:51:50;14.88;;;7.05;;
23712;SDS011;12035;49.978;8.298;2022-10-31T12:57:06;12.85;;;6.68;;
23712;SDS011;12035;49.978;8.298;2022-10-31T13:02:20;14.10;;;5.82;;
23712;SDS011;12035;49.978;8.298;2022-10-31T13:07:22;10.25;;;4.78;;
23712;SDS011;12035;49.978;8.298;2022-10-31T13:12:24;8.50;;;4.97;;
23712;SDS011;12035;49.978;8.298;2022-10-31T13:17:26;10.55;;;5.75;;
23712;SDS011;12035;49.978;8.298;2022-10-31T13:22:29;14.18;;;5.85;;
23712;SDS011;12035;49.978;8.298;2022-10-31T13:27:36;15.15;;;6.00;;
23712;SDS011;12035;49.978;8.298;2022-10-31T13:32:44;13.63;;;6.38;;
23712;SDS011;12035;49.978;8.298;2022-10-31T13:37:48;12.65;;;6.25;;
23712;SDS011;12035;49.978;8.298;2022-10-31T13:43:01;8.88;;;5.28;;
23712;SDS011;12035;49.978;8.298;2022-10-31T13:48:18;8.73;;;5.93;;
23712;SDS011;12035;49.978;8.298;2022-10-31T13:53:36;12.05;;;5.60;;
23712;SDS011;12035;49.978;8.298;2022-10-31T13:58:38;9.48;;;4.65;;
23712;SDS011;12035;49.978;8.298;2022-10-31T14:03:55;13.70;;;4.93;;
23712;SDS011;12035;49.978;8.298;2022-10-31T14:08:57;8.73;;;4.90;;
23712;SDS011;12035;49.978;8.298;2022-10-31T14:13:56;10.40;;;4.85;;
23712;SDS011;12035;49.978;8.298;2022-10-31T14:18:58;10.93;;;4.72;;
23712;SDS011;12035;49.978;8.298;2022-10-31T14:24:00;15.63;;;5.30;;
23712;SDS011;12035;49.978;8.298;2022-10-31T14:28:59;8.30;;;4.57;;
23712;SDS011;12035;49.978;8.298;2022-10-31T14:33:58;9.60;;;4.78;;
23712;SDS011;12035;49.978;8.298;2022-10-31T14:38:56;8.73;;;4.70;;
23712;SDS011;12035;49.978;8.298;2022-10-31T14:49:40;9.63;;;4.97;;
23712;SDS011;12035;49.978;8.298;2022-10-31T14:55:11;11.68;;;5.43;;
23712;SDS011;12035;49.978;8.298;2022-10-31T15:00:12;7.93;;;4.47;;
23712;SDS011;12035;49.978;8.298;2022-10-31T15:05:15;7.38;;;4.20;;
23712;SDS011;12035;49.978;8.298;2022-10-31T15:10:19;12.52;;;5.18;;
23712;SDS011;12035;49.978;8.298;2022-10-31T15:15:19;11.55;;;4.95;;
23712;SDS011;12035;49.978;8.298;2022-10-31T15:20:21;7.35;;;4.25;;
23712;SDS011;12035;49.978;8.298;2022-10-31T15:25:22;8.43;;;4.07;;
23712;SDS011;12035;49.978;8.298;2022-10-31T15:30:22;10.50;;;5.45;;
23712;SDS011;12035;49.978;8.298;2022-10-31T15:35:24;8.18;;;4.68;;
23712;SDS011;12035;49.978;8.298;2022-10-31T15:40:24;10.30;;;4.55;;
23712;SDS011;12035;49.978;8.298;2022-10-31T15:45:23;12.02;;;6.15;;
23712;SDS011;12035;49.978;8.298;2022-10-31T15:50:27;13.40;;;6.53;;
23712;SDS011;12035;49.978;8.298;2022-10-31T15:55:27;15.38;;;6.90;;
23712;SDS011;12035;49.978;8.298;2022-10-31T16:00:29;15.15;;;6.90;;
23712;SDS011;12035;49.978;8.298;2022-10-31T16:05:32;17.05;;;7.03;;
23712;SDS011;12035;49.978;8.298;2022-10-31T16:10:34;11.77;;;6.10;;
23712;SDS011;12035;49.978;8.298;2022-10-31T16:15:32;13.68;;;5.70;;
23712;SDS011;12035;49.978;8.298;2022-10-31T16:20:32;9.60;;;4.40;;
23712;SDS011;12035;49.978;8.298;2022-10-31T16:25:33;9.23;;;4.60;;
23712;SDS011;12035;49.978;8.298;2022-10-31T16:30:36;8.32;;;4.45;;
23712;SDS011;12035;49.978;8.298;2022-10-31T16:35:38;11.38;;;4.95;;
23712;SDS011;12035;49.978;8.298;2022-10-31T16:40:37;9.48;;;4.75;;
23712;SDS011;12035;49.978;8.298;2022-10-31T16:45:34;14.07;;;6.35;;
23712;SDS011;12035;49.978;8.298;2022-10-31T16:50:31;12.90;;;6.50;;
23712;SDS011;12035;49.978;8.298;2022-10-31T16:55:30;10.40;;;6.15;;
23712;SDS011;12035;49.978;8.298;2022-10-31T17:00:29;12.25;;;4.75;;
23712;SDS011;12035;49.978;8.298;2022-10-31T17:05:27;10.18;;;5.00;;
23712;SDS011;12035;49.978;8.298;2022-10-31T17:10:27;13.93;;;6.10;;
23712;SDS011;12035;49.978;8.298;2022-10-31T17:15:26;14.23;;;6.43;;
23712;SDS011;12035;49.978;8.298;2022-10-31T17:20:26;12.35;;;6.72;;
23712;SDS011;12035;49.978;8.298;2022-10-31T17:25:26;11.18;;;5.25;;
23712;SDS011;12035;49.978;8.298;2022-10-31T17:30:27;12.05;;;6.15;;
23712;SDS011;12035;49.978;8.298;2022-10-31T17:35:25;11.38;;;6.45;;
23712;SDS011;12035;49.978;8.298;2022-10-31T17:40:24;14.30;;;6.78;;
23712;SDS011;12035;49.978;8.298;2022-10-31T17:45:23;13.02;;;7.00;;
23712;SDS011;12035;49.978;8.298;2022-10-31T17:50:24;14.27;;;7.68;;
23712;SDS011;12035;49.978;8.298;2022-10-31T17:55:23;10.73;;;6.50;;
23712;SDS011;12035;49.978;8.298;2022-10-31T18:00:21;16.40;;;8.23;;
23712;SDS011;12035;49.978;8.298;2022-10-31T18:05:19;10.88;;;6.05;;
23712;SDS011;12035;49.978;8.298;2022-10-31T18:10:19;16.23;;;7.90;;
23712;SDS011;12035;49.978;8.298;2022-10-31T18:15:17;17.67;;;8.48;;
23712;SDS011;12035;49.978;8.298;2022-10-31T18:20:15;13.50;;;7.20;;
23712;SDS011;12035;49.978;8.298;2022-10-31T18:25:12;18.17;;;8.35;;
23712;SDS011;12035;49.978;8.298;2022-10-31T18:30:11;20.98;;;11.48;;
23712;SDS011;12035;49.978;8.298;2022-10-31T18:35:08;15.43;;;7.60;;
23712;SDS011;12035;49.978;8.298;2022-10-31T18:40:06;13.07;;;7.40;;
23712;SDS011;12035;49.978;8.298;2022-10-31T18:45:04;11.90;;;7.13;;
23712;SDS011;12035;49.978;8.298;2022-10-31T18:50:04;14.80;;;7.53;;
23712;SDS011;12035;49.978;8.298;2022-10-31T18:55:02;15.23;;;7.97;;
23712;SDS011;12035;49.978;8.298;2022-10-31T19:00:00;14.02;;;7.15;;
23712;SDS011;12035;49.978;8.298;2022-10-31T19:04:58;14.23;;;7.88;;
23712;SDS011;12035;49.978;8.298;2022-10-31T19:09:57;12.68;;;7.72;;
23712;SDS011;12035;49.978;8.298;2022-10-31T19:14:54;14.25;;;7.47;;
23712;SDS011;12035;49.978;8.298;2022-10-31T19:19:51;12.57;;;7.10;;
23712;SDS011;12035;49.978;8.298;2022-10-31T19:24:48;14.43;;;8.05;;
23712;SDS011;12035;49.978;8.298;2022-10-31T19:29:47;18.85;;;9.23;;
23712;SDS011;12035;49.978;8.298;2022-10-31T19:34:44;12.57;;;8.05;;
23712;SDS011;12035;49.978;8.298;2022-10-31T19:39:41;16.42;;;8.32;;
23712;SDS011;12035;49.978;8.298;2022-10-31T19:44:38;14.10;;;6.78;;
23712;SDS011;12035;49.978;8.298;2022-10-31T19:49:37;11.80;;;7.00;;
23712;SDS011;12035;49.978;8.298;2022-10-31T19:54:34;11.30;;;5.90;;
23712;SDS011;12035;49.978;8.298;2022-10-31T19:59:31;15.38;;;7.28;;
23712;SDS011;12035;49.978;8.298;2022-10-31T20:04:28;13.35;;;7.18;;
23712;SDS011;12035;49.978;8.298;2022-10-31T20:09:27;16.02;;;8.35;;
23712;SDS011;12035;49.978;8.298;2022-10-31T20:14:24;20.88;;;13.55;;
23712;SDS011;12035;49.978;8.298;2022-10-31T20:19:22;18.05;;;10.43;;
23712;SDS011;12035;49.978;8.298;2022-10-31T20:24:19;13.57;;;8.07;;
23712;SDS011;12035;49.978;8.298;2022-10-31T20:29:18;24.98;;;11.13;;
23712;SDS011;12035;49.978;8.298;2022-10-31T20:34:15;19.33;;;10.18;;
23712;SDS011;12035;49.978;8.298;2022-10-31T20:39:12;17.10;;;8.38;;
23712;SDS011;12035;49.978;8.298;2022-10-31T20:44:10;15.63;;;8.23;;
23712;SDS011;12035;49.978;8.298;2022-10-31T20:49:09;15.50;;;9.02;;
23712;SDS011;12035;49.978;8.298;2022-10-31T20:54:06;14.13;;;7.53;;
23712;SDS011;12035;49.978;8.298;2022-10-31T20:59:09;19.05;;;9.35;;
23712;SDS011;12035;49.978;8.298;2022-10-31T21:04:10;13.52;;;7.22;;
23712;SDS011;12035;49.978;8.298;2022-10-31T21:09:09;14.07;;;7.13;;
23712;SDS011;12035;49.978;8.298;2022-10-31T21:14:08;13.05;;;7.43;;
23712;SDS011;12035;49.978;8.298;2022-10-31T21:19:05;13.18;;;7.38;;
23712;SDS011;12035;49.978;8.298;2022-10-31T21:24:05;16.70;;;7.97;;
23712;SDS011;12035;49.978;8.298;2022-10-31T21:29:06;11.90;;;6.82;;
23712;SDS011;12035;49.978;8.298;2022-10-31T21:34:04;13.27;;;6.68;;
23712;SDS011;12035;49.978;8.298;2022-10-31T21:39:02;15.35;;;7.15;;
23712;SDS011;12035;49.978;8.298;2022-10-31T21:44:02;12.93;;;6.72;;
23712;SDS011;12035;49.978;8.298;2022-10-31T21:49:00;12.02;;;6.85;;
23712;SDS011;12035;49.978;8.298;2022-10-31T21:53:59;12.32;;;5.93;;
23712;SDS011;12035;49.978;8.298;2022-10-31T21:59:15;15.45;;;7.03;;
23712;SDS011;12035;49.978;8.298;2022-10-31T22:04:12;8.10;;;5.05;;
23712;SDS011;12035;49.978;8.298;2022-10-31T22:09:10;7.63;;;5.25;;
23712;SDS011;12035;49.978;8.298;2022-10-31T22:14:15;9.00;;;5.18;;
23712;SDS011;12035;49.978;8.298;2022-10-31T22:19:13;13.23;;;4.93;;
23712;SDS011;12035;49.978;8.298;2022-10-31T22:24:12;11.50;;;6.38;;
23712;SDS011;12035;49.978;8.298;2022-10-31T22:29:12;10.23;;;6.57;;
23712;SDS011;12035;49.978;8.298;2022-10-31T22:34:19;8.18;;;5.50;;
23712;SDS011;12035;49.978;8.298;2022-10-31T22:39:43;13.32;;;5.78;;
23712;SDS011;12035;49.978;8.298;2022-10-31T22:44:41;10.90;;;5.57;;
23712;SDS011;12035;49.978;8.298;2022-10-31T22:49:38;13.05;;;6.72;;
23712;SDS011;12035;49.978;8.298;2022-10-31T22:54:36;9.55;;;5.78;;
23712;SDS011;12035;49.978;8.298;2022-10-31T22:59:33;10.93;;;6.53;;
23712;SDS011;12035;49.978;8.298;2022-10-31T23:04:32;13.50;;;6.88;;
23712;SDS011;12035;49.978;8.298;2022-10-31T23:09:29;19.38;;;8.30;;
23712;SDS011;12035;49.978;8.298;2022-10-31T23:14:27;12.80;;;7.50;;
23712;SDS011;12035;49.978;8.298;2022-10-31T23:19:24;14.77;;;7.85;;
23712;SDS011;12035;49.978;8.298;2022-10-31T23:24:25;12.93;;;7.55;;
23712;SDS011;12035;49.978;8.298;2022-10-31T23:29:25;14.95;;;7.15;;
23712;SDS011;12035;49.978;8.298;2022-10-31T23:34:22;11.52;;;6.75;;
23712;SDS011;12035;49.978;8.298;2022-10-31T23:39:19;12.07;;;6.82;;
23712;SDS011;12035;49.978;8.298;2022-10-31T23:44:18;10.88;;;6.40;;
23712;SDS011;12035;49.978;8.298;2022-10-31T23:49:15;13.23;;;7.28;;
23712;SDS011;12035;49.978;8.298;2022-10-31T23:54:12;19.70;;;12.00;;
23712;SDS011;12035;49.978;8.298;2022-10-31T23:59:10;12.30;;;8.40;;
